createdAt,value
2018-08-03T00:02:10.483Z,24.90
2018-08-03T00:04:39.971Z,24.90
2018-08-03T00:07:09.226Z,24.80
2018-08-03T00:09:38.729Z,24.80
2018-08-03T00:12:08.325Z,24.90
2018-08-03T00:14:38.183Z,24.80
2018-08-03T00:17:07.645Z,24.80
2018-08-03T00:19:37.430Z,24.70
2018-08-03T00:22:06.570Z,24.70
2018-08-03T00:24:36.414Z,24.60
2018-08-03T00:27:05.286Z,24.60
2018-08-03T00:29:34.791Z,24.50
2018-08-03T00:32:04.266Z,24.50
2018-08-03T00:34:33.822Z,24.50
2018-08-03T00:37:03.307Z,24.50
2018-08-03T00:39:32.801Z,24.50
2018-08-03T00:42:02.327Z,24.50
2018-08-03T00:44:32.157Z,24.50
2018-08-03T00:47:01.691Z,24.50
2018-08-03T00:49:31.314Z,24.40
2018-08-03T00:52:00.768Z,24.40
2018-08-03T00:54:30.318Z,24.40
2018-08-03T00:56:59.807Z,24.40
2018-08-03T00:59:29.639Z,24.40
2018-08-03T01:04:28.019Z,24.20
2018-08-03T01:06:58.553Z,24.20
2018-08-03T01:09:28.632Z,24.10
2018-08-03T01:11:58.303Z,24.10
2018-08-03T01:14:27.861Z,24.00
2018-08-03T01:16:57.382Z,24.00
2018-08-03T01:19:27.080Z,24.10
2018-08-03T01:21:57.081Z,24.00
2018-08-03T01:24:26.295Z,24.10
2018-08-03T01:26:56.031Z,24.00
2018-08-03T01:29:25.526Z,23.90
2018-08-03T01:31:55.207Z,23.90
2018-08-03T01:34:25.170Z,23.80
2018-08-03T01:36:55.106Z,23.80
2018-08-03T01:39:24.991Z,23.80
2018-08-03T01:41:53.951Z,23.80
2018-08-03T01:44:23.555Z,23.90
2018-08-03T01:46:52.899Z,23.90
2018-08-03T01:49:22.353Z,23.90
2018-08-03T01:51:52.119Z,24.00
2018-08-03T01:54:21.755Z,23.90
2018-08-03T01:59:20.311Z,23.90
2018-08-03T02:01:49.928Z,23.90
2018-08-03T02:04:19.224Z,23.90
2018-08-03T02:06:49.174Z,23.90
2018-08-03T02:09:18.511Z,23.90
2018-08-03T02:11:47.717Z,23.90
2018-08-03T02:14:17.616Z,23.90
2018-08-03T02:16:47.240Z,23.90
2018-08-03T02:19:17.295Z,23.90
2018-08-03T02:21:47.016Z,24.00
2018-08-03T02:24:17.045Z,24.00
2018-08-03T02:26:46.495Z,24.00
2018-08-03T02:29:16.085Z,24.00
2018-08-03T02:31:45.456Z,23.90
2018-08-03T02:34:15.010Z,23.90
2018-08-03T02:36:44.579Z,23.90
2018-08-03T02:39:14.822Z,23.90
2018-08-03T02:41:44.584Z,23.90
2018-08-03T02:44:14.078Z,24.00
2018-08-03T02:46:43.546Z,24.10
2018-08-03T02:49:13.354Z,24.20
2018-08-03T02:51:43.995Z,24.10
2018-08-03T02:54:13.766Z,24.10
2018-08-03T02:56:43.016Z,24.10
2018-08-03T02:59:12.462Z,24.10
2018-08-03T03:01:41.567Z,24.20
2018-08-03T03:04:10.892Z,24.20
2018-08-03T03:06:40.324Z,24.20
2018-08-03T03:09:11.333Z,24.10
2018-08-03T03:11:40.799Z,24.10
2018-08-03T03:14:10.347Z,24.00
2018-08-03T03:16:39.902Z,23.90
2018-08-03T03:19:09.368Z,23.60
2018-08-03T03:21:38.860Z,23.20
2018-08-03T03:24:08.358Z,23.00
2018-08-03T03:26:37.941Z,22.60
2018-08-03T03:29:07.053Z,22.20
2018-08-03T03:31:36.902Z,21.80
2018-08-03T03:34:06.048Z,21.50
2018-08-03T03:36:35.574Z,21.40
2018-08-03T03:39:08.538Z,21.20
2018-08-03T03:41:38.029Z,20.90
2018-08-03T03:44:07.994Z,20.80
2018-08-03T03:46:37.759Z,20.70
2018-08-03T03:49:07.272Z,20.60
2018-08-03T03:51:36.763Z,20.50
2018-08-03T03:54:06.226Z,20.50
2018-08-03T03:56:35.753Z,20.60
2018-08-03T03:59:04.896Z,20.60
2018-08-03T04:01:34.390Z,20.60
2018-08-03T04:04:03.852Z,20.80
2018-08-03T04:06:33.332Z,21.00
2018-08-03T04:09:02.871Z,21.10
2018-08-03T04:11:32.361Z,20.90
2018-08-03T04:14:01.602Z,21.00
2018-08-03T04:16:31.087Z,21.00
2018-08-03T04:19:00.956Z,20.90
2018-08-03T04:21:30.512Z,20.80
2018-08-03T04:23:59.676Z,20.70
2018-08-03T04:26:28.918Z,20.70
2018-08-03T04:28:59.050Z,20.70
2018-08-03T04:31:28.943Z,20.70
2018-08-03T04:33:59.154Z,20.80
2018-08-03T04:36:28.913Z,20.80
2018-08-03T04:38:58.770Z,20.70
2018-08-03T04:41:28.066Z,20.70
2018-08-03T04:43:57.197Z,20.60
2018-08-03T04:46:26.755Z,20.60
2018-08-03T04:48:56.567Z,20.60
2018-08-03T04:51:26.053Z,20.70
2018-08-03T04:53:55.868Z,20.90
2018-08-03T04:56:25.658Z,20.90
2018-08-03T04:58:55.499Z,21.10
2018-08-03T05:01:25.382Z,21.20
2018-08-03T05:03:54.440Z,21.40
2018-08-03T05:06:23.933Z,21.40
2018-08-03T05:08:53.422Z,21.50
2018-08-03T05:11:22.611Z,21.70
2018-08-03T05:13:52.152Z,21.80
2018-08-03T05:16:21.619Z,22.00
2018-08-03T05:18:50.797Z,22.10
2018-08-03T05:21:20.304Z,22.30
2018-08-03T05:23:49.803Z,22.40
2018-08-03T05:26:19.364Z,22.60
2018-08-03T05:28:49.132Z,22.80
2018-08-03T05:31:18.231Z,23.00
2018-08-03T05:33:47.634Z,23.10
2018-08-03T05:36:17.613Z,23.30
2018-08-03T05:38:47.623Z,23.50
2018-08-03T05:41:17.394Z,23.60
2018-08-03T05:43:46.854Z,24.20
2018-08-03T05:46:16.662Z,24.20
2018-08-03T05:48:46.478Z,24.40
2018-08-03T05:51:15.884Z,24.40
2018-08-03T05:53:45.661Z,24.50
2018-08-03T05:56:15.180Z,24.90
2018-08-03T05:58:44.711Z,25.10
2018-08-03T06:01:14.117Z,25.20
2018-08-03T06:03:43.330Z,25.60
2018-08-03T06:06:12.837Z,25.90
2018-08-03T06:08:42.684Z,26.00
2018-08-03T06:11:11.809Z,26.50
2018-08-03T06:13:41.596Z,26.90
2018-08-03T06:16:11.215Z,27.10
2018-08-03T06:18:40.361Z,27.20
2018-08-03T06:21:09.566Z,27.00
2018-08-03T06:23:38.863Z,27.10
2018-08-03T06:26:08.431Z,27.50
2018-08-03T06:28:37.920Z,27.80
2018-08-03T06:31:07.134Z,28.10
2018-08-03T06:33:36.665Z,28.30
2018-08-03T06:36:05.849Z,28.30
2018-08-03T06:38:35.723Z,28.50
2018-08-03T06:41:04.997Z,28.70
2018-08-03T06:43:34.518Z,28.90
2018-08-03T06:46:03.696Z,29.00
2018-08-03T06:48:32.973Z,29.50
2018-08-03T06:51:03.017Z,29.40
2018-08-03T06:53:32.486Z,29.00
2018-08-03T06:56:01.972Z,29.10
2018-08-03T06:58:31.114Z,29.20
2018-08-03T07:01:00.802Z,29.30
2018-08-03T07:03:30.511Z,29.60
2018-08-03T07:05:59.712Z,29.90
2018-08-03T07:08:29.263Z,30.30
2018-08-03T07:10:58.916Z,30.40
2018-08-03T07:13:28.702Z,30.50
2018-08-03T07:15:58.522Z,30.40
2018-08-03T07:18:27.632Z,30.70
2018-08-03T07:20:57.090Z,31.10
2018-08-03T07:23:26.798Z,31.10
2018-08-03T07:25:56.353Z,31.30
2018-08-03T07:28:26.339Z,31.40
2018-08-03T07:30:56.152Z,31.30
2018-08-03T07:33:25.934Z,31.30
2018-08-03T07:35:55.670Z,31.70
2018-08-03T07:38:25.184Z,32.30
2018-08-03T07:40:55.040Z,32.40
2018-08-03T07:43:24.239Z,32.40
2018-08-03T07:45:53.900Z,32.60
2018-08-03T07:48:23.333Z,32.80
2018-08-03T07:50:53.172Z,33.30
2018-08-03T07:53:22.384Z,33.00
2018-08-03T07:55:51.153Z,33.00
2018-08-03T07:58:20.618Z,33.60
2018-08-03T08:00:49.678Z,33.60
2018-08-03T08:03:18.831Z,33.20
2018-08-03T08:05:48.850Z,33.50
2018-08-03T08:08:18.286Z,33.80
2018-08-03T08:10:47.794Z,34.20
2018-08-03T08:13:17.253Z,33.90
2018-08-03T08:15:46.445Z,34.30
2018-08-03T08:18:16.163Z,34.40
2018-08-03T08:23:15.010Z,35.00
2018-08-03T08:25:44.827Z,35.40
2018-08-03T08:28:14.310Z,35.50
2018-08-03T08:33:12.797Z,34.80
2018-08-03T08:35:42.080Z,34.80
2018-08-03T08:38:11.875Z,34.70
2018-08-03T08:40:41.944Z,35.50
2018-08-03T08:43:11.476Z,35.80
2018-08-03T08:45:40.682Z,36.60
2018-08-03T08:48:10.660Z,36.50
2018-08-03T08:50:40.095Z,36.80
2018-08-03T08:53:09.772Z,37.10
2018-08-03T08:55:39.821Z,37.20
2018-08-03T08:58:09.338Z,37.20
2018-08-03T09:00:38.793Z,37.30
2018-08-03T09:03:08.780Z,36.70
2018-08-03T09:05:38.892Z,36.20
2018-08-03T09:08:08.519Z,36.40
2018-08-03T09:10:38.541Z,36.50
2018-08-03T09:13:08.057Z,36.50
2018-08-03T09:15:37.752Z,36.60
2018-08-03T09:18:06.962Z,36.20
2018-08-03T09:20:36.678Z,36.20
2018-08-03T09:23:05.949Z,36.00
2018-08-03T09:25:35.762Z,36.60
2018-08-03T09:28:05.287Z,36.70
2018-08-03T09:30:34.758Z,37.10
2018-08-03T09:33:04.167Z,37.20
2018-08-03T09:35:33.402Z,37.80
2018-08-03T09:38:02.500Z,37.70
2018-08-03T09:40:33.692Z,38.20
2018-08-03T09:43:03.720Z,38.30
2018-08-03T09:45:33.307Z,38.30
2018-08-03T09:48:03.282Z,38.10
2018-08-03T09:50:33.108Z,38.10
2018-08-03T09:53:02.986Z,38.60
2018-08-03T09:55:32.546Z,38.60
2018-08-03T09:58:01.605Z,38.50
2018-08-03T10:00:37.055Z,38.80
2018-08-03T10:03:06.555Z,38.60
2018-08-03T10:05:36.012Z,38.80
2018-08-03T10:08:05.637Z,38.90
2018-08-03T10:10:35.386Z,38.80
2018-08-03T10:13:05.581Z,38.90
2018-08-03T10:15:35.415Z,39.30
2018-08-03T10:18:05.347Z,39.40
2018-08-03T10:20:34.753Z,39.80
2018-08-03T10:23:04.925Z,40.20
2018-08-03T10:25:34.350Z,40.40
2018-08-03T10:28:04.209Z,39.90
2018-08-03T10:30:33.798Z,39.20
2018-08-03T10:33:03.321Z,39.20
2018-08-03T10:35:32.752Z,39.50
2018-08-03T10:38:02.190Z,40.20
2018-08-03T10:40:31.443Z,40.60
2018-08-03T10:43:00.990Z,40.20
2018-08-03T10:45:30.640Z,39.80
2018-08-03T10:48:00.429Z,39.60
2018-08-03T10:50:29.892Z,39.50
2018-08-03T10:52:59.138Z,38.70
2018-08-03T10:55:30.027Z,38.90
2018-08-03T10:57:59.361Z,38.80
2018-08-03T11:00:30.495Z,38.90
2018-08-03T11:03:00.304Z,39.90
2018-08-03T11:05:30.285Z,40.20
2018-08-03T11:07:59.336Z,40.90
2018-08-03T11:10:28.773Z,41.40
2018-08-03T11:12:58.404Z,41.60
2018-08-03T11:15:29.122Z,41.90
2018-08-03T11:17:58.638Z,41.80
2018-08-03T11:20:28.139Z,41.80
2018-08-03T11:22:57.980Z,41.70
2018-08-03T11:25:27.752Z,41.90
2018-08-03T11:27:57.555Z,42.00
2018-08-03T11:30:27.440Z,41.60
2018-08-03T11:32:57.548Z,41.50
2018-08-03T11:35:27.557Z,41.50
2018-08-03T11:37:57.457Z,40.90
2018-08-03T11:40:27.336Z,41.30
2018-08-03T11:42:56.623Z,41.90
2018-08-03T11:45:25.808Z,43.10
2018-08-03T11:47:54.873Z,43.00
2018-08-03T11:50:24.889Z,43.40
2018-08-03T11:52:54.366Z,43.00
2018-08-03T11:55:23.920Z,42.30
2018-08-03T11:57:53.800Z,41.40
2018-08-03T12:00:23.711Z,40.50
2018-08-03T12:02:53.480Z,40.30
2018-08-03T12:05:23.440Z,41.10
2018-08-03T12:07:53.507Z,41.90
2018-08-03T12:10:23.109Z,42.70
2018-08-03T12:12:53.297Z,42.80
2018-08-03T12:15:23.077Z,42.50
2018-08-03T12:17:52.597Z,42.70
2018-08-03T12:20:22.964Z,42.20
2018-08-03T12:22:53.121Z,41.40
2018-08-03T12:25:23.655Z,42.70
2018-08-03T12:27:53.821Z,42.60
2018-08-03T12:30:23.213Z,42.50
2018-08-03T12:32:52.326Z,42.10
2018-08-03T12:35:22.151Z,42.20
2018-08-03T12:37:52.239Z,43.90
2018-08-03T12:40:22.369Z,44.00
2018-08-03T12:42:52.768Z,43.60
2018-08-03T12:45:22.781Z,43.30
2018-08-03T12:47:52.769Z,42.50
2018-08-03T12:50:23.171Z,42.90
2018-08-03T12:52:53.226Z,43.70
2018-08-03T12:55:23.815Z,44.30
2018-08-03T12:57:54.194Z,43.90
2018-08-03T13:00:24.261Z,44.60
2018-08-03T13:02:54.356Z,44.90
2018-08-03T13:05:24.728Z,44.10
2018-08-03T13:07:54.438Z,43.20
2018-08-03T13:10:24.242Z,43.50
2018-08-03T13:12:54.719Z,43.70
2018-08-03T13:15:25.101Z,44.00
2018-08-03T13:17:54.579Z,43.90
2018-08-03T13:20:24.274Z,43.20
2018-08-03T13:22:57.709Z,42.80
2018-08-03T13:25:26.961Z,43.40
2018-08-03T13:27:56.056Z,43.60
2018-08-03T13:30:26.032Z,43.80
2018-08-03T13:32:56.057Z,43.60
2018-08-03T13:35:25.522Z,44.20
2018-08-03T13:37:55.896Z,43.60
2018-08-03T13:40:25.947Z,43.90
2018-08-03T13:42:55.388Z,43.40
2018-08-03T13:45:24.549Z,43.30
2018-08-03T13:47:54.615Z,43.90
2018-08-03T13:50:24.748Z,43.90
2018-08-03T13:52:54.362Z,43.80
2018-08-03T13:55:24.356Z,43.40
2018-08-03T13:57:53.954Z,43.80
2018-08-03T14:00:23.834Z,43.80
2018-08-03T14:02:53.879Z,44.20
2018-08-03T14:05:23.639Z,43.60
2018-08-03T14:07:53.994Z,42.70
2018-08-03T14:10:24.580Z,43.50
2018-08-03T14:12:54.082Z,44.30
2018-08-03T14:15:23.709Z,44.20
2018-08-03T14:17:54.212Z,44.40
2018-08-03T14:20:23.960Z,43.50
2018-08-03T14:22:53.656Z,43.10
2018-08-03T14:25:23.472Z,42.90
2018-08-03T14:27:53.126Z,42.90
2018-08-03T14:30:22.608Z,42.90
2018-08-03T14:32:51.810Z,42.00
2018-08-03T14:35:21.660Z,41.30
2018-08-03T14:37:51.459Z,40.20
2018-08-03T14:40:20.701Z,39.50
2018-08-03T14:42:50.450Z,38.40
2018-08-03T14:45:20.238Z,38.20
2018-08-03T14:47:49.080Z,37.60
2018-08-03T14:50:18.277Z,37.30
2018-08-03T14:52:47.702Z,36.70
2018-08-03T14:55:16.809Z,36.30
2018-08-03T14:57:46.275Z,36.30
2018-08-03T15:00:15.505Z,36.00
2018-08-03T15:02:44.340Z,36.00
2018-08-03T15:05:13.474Z,35.70
2018-08-03T15:07:43.355Z,35.50
2018-08-03T15:10:13.093Z,35.20
2018-08-03T15:12:42.597Z,35.10
2018-08-03T15:15:12.019Z,34.90
2018-08-03T15:17:41.550Z,34.90
2018-08-03T15:20:12.301Z,35.00
2018-08-03T15:22:41.755Z,34.80
2018-08-03T15:25:10.850Z,34.60
2018-08-03T15:27:40.767Z,34.60
2018-08-03T15:30:11.051Z,34.50
2018-08-03T15:32:40.337Z,34.50
2018-08-03T15:37:38.531Z,34.30
2018-08-03T15:40:08.080Z,34.30
2018-08-03T15:42:37.262Z,34.20
2018-08-03T15:45:07.712Z,34.40
2018-08-03T15:47:37.307Z,34.40
2018-08-03T15:50:06.720Z,34.30
2018-08-03T15:52:35.565Z,34.30
2018-08-03T15:55:05.545Z,34.10
2018-08-03T15:57:35.731Z,34.10
2018-08-03T16:00:07.239Z,34.10
2018-08-03T16:02:36.520Z,34.10
2018-08-03T16:05:06.589Z,33.90
2018-08-03T16:07:36.061Z,33.80
2018-08-03T16:10:05.546Z,33.70
2018-08-03T16:12:34.708Z,33.60
2018-08-03T16:15:04.178Z,33.70
2018-08-03T16:17:33.627Z,33.50
2018-08-03T16:20:02.804Z,33.30
2018-08-03T16:22:32.524Z,33.20
2018-08-03T16:25:02.347Z,33.00
2018-08-03T16:27:31.461Z,33.10
2018-08-03T16:30:00.871Z,33.00
2018-08-03T16:32:30.046Z,33.00
2018-08-03T16:34:59.514Z,33.00
2018-08-03T16:37:28.770Z,33.00
2018-08-03T16:39:58.224Z,33.00
2018-08-03T16:42:27.371Z,33.10
2018-08-03T16:44:57.109Z,33.10
2018-08-03T16:47:26.247Z,33.00
2018-08-03T16:49:55.413Z,33.00
2018-08-03T16:52:25.193Z,33.00
2018-08-03T16:54:54.285Z,33.00
2018-08-03T16:57:24.096Z,32.90
2018-08-03T16:59:53.987Z,33.00
2018-08-03T17:02:24.023Z,32.80
2018-08-03T17:04:53.330Z,32.70
2018-08-03T17:07:23.139Z,32.60
2018-08-03T17:09:52.666Z,32.70
2018-08-03T17:12:22.258Z,32.60
2018-08-03T17:14:52.123Z,32.60
2018-08-03T17:17:21.488Z,32.50
2018-08-03T17:19:51.289Z,32.30
2018-08-03T17:22:20.820Z,32.20
2018-08-03T17:24:50.241Z,32.20
2018-08-03T17:27:19.474Z,32.10
2018-08-03T17:29:49.344Z,32.10
2018-08-03T17:32:18.508Z,32.00
2018-08-03T17:34:48.002Z,31.90
2018-08-03T17:37:17.601Z,31.80
2018-08-03T17:39:47.448Z,31.70
2018-08-03T17:42:16.833Z,31.60
2018-08-03T17:44:46.290Z,31.60
2018-08-03T17:47:16.083Z,31.60
2018-08-03T17:49:45.911Z,31.50
2018-08-03T17:52:15.581Z,31.50
2018-08-03T17:54:45.171Z,31.40
2018-08-03T17:57:14.437Z,31.30
2018-08-03T17:59:44.410Z,31.30
2018-08-03T18:02:13.963Z,31.20
2018-08-03T18:04:43.362Z,31.20
2018-08-03T18:07:13.804Z,31.10
2018-08-03T18:09:43.620Z,31.10
2018-08-03T18:12:13.075Z,31.00
2018-08-03T18:14:42.898Z,31.00
2018-08-03T18:17:12.062Z,31.00
2018-08-03T18:19:41.490Z,31.00
2018-08-03T18:22:11.055Z,30.90
2018-08-03T18:24:40.498Z,30.80
2018-08-03T18:27:09.970Z,30.70
2018-08-03T18:29:39.609Z,30.50
2018-08-03T18:32:09.185Z,30.50
2018-08-03T18:34:38.683Z,30.30
2018-08-03T18:37:08.021Z,30.20
2018-08-03T18:39:38.344Z,30.10
2018-08-03T18:42:07.913Z,30.10
2018-08-03T18:44:37.486Z,30.10
2018-08-03T18:47:07.095Z,30.00
2018-08-03T18:49:36.926Z,29.90
2018-08-03T18:52:06.715Z,29.80
2018-08-03T18:54:36.713Z,29.70
2018-08-03T18:57:05.996Z,29.70
2018-08-03T18:59:35.179Z,29.60
2018-08-03T19:02:04.283Z,29.50
2018-08-03T19:04:33.776Z,29.40
2018-08-03T19:07:03.010Z,29.40
2018-08-03T19:09:32.798Z,29.40
2018-08-03T19:12:02.641Z,29.30
2018-08-03T19:14:32.397Z,29.20
2018-08-03T19:19:30.949Z,29.10
2018-08-03T19:22:00.780Z,29.00
2018-08-03T19:24:30.386Z,28.90
2018-08-03T19:26:59.855Z,28.80
2018-08-03T19:29:29.679Z,28.80
2018-08-03T19:31:59.670Z,28.70
2018-08-03T19:34:29.358Z,28.60
2018-08-03T19:36:58.863Z,28.60
2018-08-03T19:39:28.009Z,28.60
2018-08-03T19:41:57.220Z,28.50
2018-08-03T19:44:27.092Z,28.40
2018-08-03T19:46:56.345Z,28.40
2018-08-03T19:49:26.151Z,28.30
2018-08-03T19:51:55.658Z,28.20
2018-08-03T19:54:25.153Z,28.20
2018-08-03T19:56:54.945Z,28.10
2018-08-03T19:59:24.649Z,28.10
2018-08-03T20:01:55.291Z,28.10
2018-08-03T20:04:25.108Z,28.00
2018-08-03T20:06:54.712Z,27.90
2018-08-03T20:09:24.664Z,27.90
2018-08-03T20:11:54.163Z,27.80
2018-08-03T20:14:23.604Z,27.80
2018-08-03T20:16:53.082Z,27.70
2018-08-03T20:19:22.521Z,27.70
2018-08-03T20:21:52.105Z,27.60
2018-08-03T20:24:21.427Z,27.60
2018-08-03T20:26:50.544Z,27.60
2018-08-03T20:29:19.724Z,27.50
2018-08-03T20:31:49.166Z,27.40
2018-08-03T20:34:18.987Z,27.30
2018-08-03T20:36:48.192Z,27.20
2018-08-03T20:39:17.320Z,27.10
2018-08-03T20:41:46.676Z,27.10
2018-08-03T20:44:16.488Z,27.00
2018-08-03T20:46:45.662Z,27.00
2018-08-03T20:51:44.142Z,26.80
2018-08-03T20:54:13.633Z,26.80
2018-08-03T20:56:43.476Z,26.70
2018-08-03T20:59:12.872Z,26.70
2018-08-03T21:01:42.715Z,26.70
2018-08-03T21:04:12.460Z,26.70
2018-08-03T21:06:42.409Z,26.80
2018-08-03T21:09:13.231Z,26.70
2018-08-03T21:11:43.119Z,26.70
2018-08-03T21:14:12.975Z,26.70
2018-08-03T21:19:11.920Z,26.60
2018-08-03T21:21:41.691Z,26.60
2018-08-03T21:26:40.242Z,26.50
2018-08-03T21:29:10.014Z,26.50
2018-08-03T21:31:39.906Z,26.50
2018-08-03T21:34:09.777Z,26.50
2018-08-03T21:36:39.007Z,26.40
2018-08-03T21:39:10.598Z,26.30
2018-08-03T21:41:39.804Z,26.20
2018-08-03T21:44:08.998Z,26.10
2018-08-03T21:46:38.471Z,26.10
2018-08-03T21:49:07.904Z,26.00
2018-08-03T21:51:37.847Z,26.00
2018-08-03T21:54:07.395Z,25.80
2018-08-03T21:56:36.881Z,25.90
2018-08-03T21:59:06.045Z,25.90
2018-08-03T22:01:35.550Z,25.90
2018-08-03T22:04:04.771Z,25.90
2018-08-03T22:06:34.124Z,26.00
2018-08-03T22:09:04.373Z,25.90
2018-08-03T22:11:33.523Z,25.90
2018-08-03T22:14:03.036Z,25.80
2018-08-03T22:16:32.482Z,25.80
2018-08-03T22:21:31.526Z,25.60
2018-08-03T22:24:00.952Z,25.60
2018-08-03T22:26:29.916Z,25.60
2018-08-03T22:28:59.761Z,25.60
2018-08-03T22:31:28.612Z,25.60
2018-08-03T22:33:58.159Z,25.60
2018-08-03T22:36:27.983Z,25.60
2018-08-03T22:38:58.766Z,25.60
2018-08-03T22:41:28.563Z,25.60
2018-08-03T22:43:58.354Z,25.50
2018-08-03T22:46:28.186Z,25.50
2018-08-03T22:48:57.679Z,25.50
2018-08-03T22:51:27.523Z,25.50
2018-08-03T22:53:56.922Z,25.50
2018-08-03T22:56:26.284Z,25.50
2018-08-03T22:58:55.918Z,25.50
2018-08-03T23:01:25.061Z,25.40
2018-08-03T23:03:54.873Z,25.40
2018-08-03T23:06:24.925Z,25.40
2018-08-03T23:08:54.372Z,25.30
2018-08-03T23:11:23.892Z,25.30
2018-08-03T23:13:53.346Z,25.20
2018-08-03T23:16:22.986Z,25.20
2018-08-03T23:18:52.236Z,25.20
2018-08-03T23:21:21.923Z,25.10
2018-08-03T23:23:51.523Z,25.10
2018-08-03T23:26:21.115Z,25.00
2018-08-03T23:28:51.030Z,25.00
2018-08-03T23:31:20.855Z,25.00
2018-08-03T23:33:50.479Z,24.90
2018-08-03T23:36:19.805Z,24.90
2018-08-03T23:38:49.336Z,24.90
2018-08-03T23:41:18.753Z,24.80
2018-08-03T23:43:48.307Z,24.80
2018-08-03T23:46:18.247Z,24.80
2018-08-03T23:48:48.059Z,24.80
2018-08-03T23:51:17.558Z,24.70
2018-08-03T23:53:47.325Z,24.70
2018-08-03T23:56:17.142Z,24.70
2018-08-03T23:58:46.602Z,24.70
